Terminal Aerodrome Forecast
Issued by NWS

Home | Current Version | Previous Version | Graphics & Text | Print | Product List | Glossary On
Versions: 1 2 3 4 5 6 7 8 9 10 11 12 13 14 15 16 17 18
000
FTUS43 KGRB 301133
TAFCWA
TAF
KCWA 301133Z 3012/3112 36009G16KT 6SM -SHRA SCT008 OVC014
      TEMPO 3012/3015 6SM -RADZ BKN008
     FM301500 01010G16KT P6SM BKN022
     FM301800 36010G17KT P6SM SCT025 BKN100
     FM302200 02008KT P6SM BKN250
     FM310400 02005KT P6SM SCT250=

USA.gov is the U.S. government's official web portal to all federal, state and local government web resources and services.